Time;durP1;ratioP1;P1;durP2;ratioP2;P2;SDS_P1;SDS_P2;PMS_P1;PMS_P2;Temp;Humidity;BMP_temperature;BMP_pressure;BME280_temperature;BME280_humidity;BME280_pressure;Samples;Min_cycle;Max_cycle;Signal;HPM_P1;HPM_P2
2022/12/23 00:01:03;;;;;;;8.27;2.53;;;16.20;90.90;;;;;;5093840;28;20470;-86
2022/12/23 00:03:29;;;;;;;9.00;3.05;;;16.20;90.90;;;;;;5105534;28;20027;-86
2022/12/23 00:05:55;;;;;;;7.82;2.03;;;16.20;90.90;;;;;;5103095;28;20022;-86
2022/12/23 00:08:22;;;;;;;5.35;2.17;;;16.20;90.90;;;;;;5112745;28;20481;-86
2022/12/23 00:10:49;;;;;;;7.72;2.20;;;16.20;90.90;;;;;;5111155;28;20122;-86
2022/12/23 00:16:05;;;;;;;5.90;2.17;;;16.20;90.90;;;;;;5104707;28;20116;-86
2022/12/23 00:18:31;;;;;;;9.35;2.38;;;16.20;90.90;;;;;;5103408;28;20432;-85
2022/12/23 00:21:01;;;;;;;8.85;2.70;;;16.20;90.90;;;;;;5100225;28;20023;-84
2022/12/23 00:23:28;;;;;;;6.72;1.98;;;16.20;90.90;;;;;;5095342;28;20019;-86
2022/12/23 00:25:53;;;;;;;9.23;2.45;;;16.20;90.90;;;;;;5095279;28;20453;-86
2022/12/23 00:28:22;;;;;;;8.07;2.53;;;16.20;90.90;;;;;;5093490;28;20070;-85
2022/12/23 00:30:51;;;;;;;9.05;2.83;;;16.20;90.90;;;;;;5104303;28;20472;-86
2022/12/23 00:33:22;;;;;;;7.97;2.05;;;16.20;90.90;;;;;;5102157;28;20061;-86
2022/12/23 00:35:48;;;;;;;9.52;2.05;;;16.20;90.90;;;;;;5095186;28;20066;-86
2022/12/23 00:38:15;;;;;;;7.72;2.15;;;16.20;90.90;;;;;;5096697;28;20028;-86
2022/12/23 00:43:24;;;;;;;9.20;2.13;;;16.20;90.90;;;;;;5116337;28;20076;-86
2022/12/23 00:45:50;;;;;;;7.82;1.98;;;16.20;90.90;;;;;;5101639;28;20024;-86
2022/12/23 00:50:59;;;;;;;7.95;1.60;;;16.20;91.00;;;;;;5100401;28;20097;-87
2022/12/23 00:53:25;;;;;;;6.78;1.95;;;16.20;90.90;;;;;;5105858;28;20023;-86
2022/12/23 00:55:51;;;;;;;6.63;2.25;;;16.20;90.90;;;;;;5100034;28;20165;-86
2022/12/23 00:58:18;;;;;;;6.97;2.35;;;16.20;91.00;;;;;;5102958;28;20055;-86
2022/12/23 01:06:13;;;;;;;6.05;2.22;;;16.20;91.40;;;;;;5104502;28;20042;-87
2022/12/23 01:08:39;;;;;;;11.25;2.20;;;16.20;91.10;;;;;;5107543;28;20399;-85
2022/12/23 01:11:07;;;;;;;14.38;2.35;;;16.20;91.20;;;;;;5114322;28;20024;-86
2022/12/23 01:13:33;;;;;;;12.90;2.80;;;16.20;91.20;;;;;;5109079;28;20069;-85
2022/12/23 01:16:09;;;;;;;7.57;2.10;;;16.20;91.20;;;;;;5109767;28;20024;-86
2022/12/23 01:18:36;;;;;;;6.18;2.10;;;16.10;91.20;;;;;;5115706;28;20023;-86
2022/12/23 01:21:04;;;;;;;9.43;2.28;;;16.10;91.20;;;;;;5114236;28;20020;-87
2022/12/23 01:23:29;;;;;;;17.58;3.33;;;16.20;91.20;;;;;;5111583;28;20016;-86
2022/12/23 01:26:00;;;;;;;12.48;2.35;;;16.10;91.20;;;;;;5102287;28;20118;-85
2022/12/23 01:28:27;;;;;;;6.13;1.67;;;16.10;91.20;;;;;;5113140;28;20035;-86
2022/12/23 01:30:52;;;;;;;8.07;2.78;;;16.20;91.20;;;;;;5108196;28;20031;-86
2022/12/23 01:33:18;;;;;;;6.13;2.13;;;16.10;91.20;;;;;;5091008;28;20032;-86
2022/12/23 01:35:44;;;;;;;12.93;2.17;;;16.10;91.20;;;;;;5075037;28;20017;-86
2022/12/23 01:38:09;;;;;;;17.83;2.25;;;16.10;91.20;;;;;;5073450;28;20025;-86
2022/12/23 01:40:36;;;;;;;6.22;1.92;;;16.10;91.20;;;;;;5113874;28;20544;-86
2022/12/23 01:43:02;;;;;;;8.77;1.83;;;16.10;91.20;;;;;;5115278;28;20435;-86
2022/12/23 01:45:30;;;;;;;6.53;2.08;;;16.10;91.10;;;;;;5111094;28;20085;-86
2022/12/23 01:48:05;;;;;;;10.82;1.80;;;16.10;91.20;;;;;;5093722;28;20110;-86
2022/12/23 01:50:33;;;;;;;9.25;2.40;;;16.20;91.20;;;;;;5104524;28;20622;-86
2022/12/23 01:53:01;;;;;;;8.20;1.83;;;16.10;91.10;;;;;;5107157;28;20027;-86
2022/12/23 01:55:30;;;;;;;5.53;1.67;;;16.20;91.20;;;;;;5102021;28;20060;-86
2022/12/23 01:58:04;;;;;;;10.68;2.30;;;16.20;91.30;;;;;;5093772;28;20056;-86
2022/12/23 02:09:15;;;;;;;10.52;2.08;;;16.10;91.30;;;;;;5101469;28;20038;-86
2022/12/23 02:11:42;;;;;;;7.10;1.83;;;16.10;91.30;;;;;;5099966;28;20079;-86
2022/12/23 02:17:28;;;;;;;9.82;2.40;;;16.20;91.40;;;;;;5102928;28;20116;-86
2022/12/23 02:20:09;;;;;;;5.35;1.50;;;16.10;91.30;;;;;;5101723;28;20095;-86
2022/12/23 02:22:53;;;;;;;;;;;16.10;91.30;;;;;;5111030;28;20026;-86
2022/12/23 02:25:44;;;;;;;5.43;1.88;;;16.10;91.30;;;;;;5092943;28;20001;-86
2022/12/23 02:28:41;;;;;;;6.43;2.05;;;16.10;91.30;;;;;;5101255;28;20089;-86
2022/12/23 02:31:45;;;;;;;8.77;1.55;;;16.10;91.30;;;;;;5091002;28;20043;-86
2022/12/23 02:34:19;;;;;;;5.53;1.52;;;16.10;91.30;;;;;;5088655;28;20055;-85
2022/12/23 02:37:00;;;;;;;5.65;1.50;;;16.10;91.30;;;;;;5080106;28;20015;-86
2022/12/23 02:39:38;;;;;;;;;;;16.10;91.30;;;;;;5105133;28;20036;-85
2022/12/23 02:42:19;;;;;;;6.07;1.80;;;16.10;91.30;;;;;;5092535;28;19904;-86
2022/12/23 02:44:51;;;;;;;5.43;2.00;;;16.10;91.30;;;;;;5104695;28;20020;-86
2022/12/23 02:47:32;;;;;;;6.25;1.80;;;16.10;91.30;;;;;;5096084;28;20489;-86
2022/12/23 02:50:05;;;;;;;5.00;1.60;;;16.10;91.40;;;;;;5106027;28;20024;-85
2022/12/23 02:52:33;;;;;;;7.25;1.83;;;16.10;91.40;;;;;;5094175;28;20028;-86
2022/12/23 02:55:04;;;;;;;8.48;1.98;;;16.10;91.40;;;;;;5092283;28;20020;-86
2022/12/23 02:57:36;;;;;;;5.05;1.48;;;16.10;91.40;;;;;;5101431;28;20393;-86
2022/12/23 03:00:03;;;;;;;13.65;1.67;;;16.10;91.40;;;;;;5107940;28;20354;-86
2022/12/23 03:02:34;;;;;;;7.10;1.88;;;16.10;91.40;;;;;;5109150;28;20066;-86
2022/12/23 03:05:00;;;;;;;10.40;1.65;;;16.10;91.40;;;;;;5107022;28;20051;-86
2022/12/23 03:07:40;;;;;;;4.15;1.30;;;16.10;91.40;;;;;;5112259;28;20449;-86
2022/12/23 03:10:17;;;;;;;5.93;2.00;;;16.10;91.40;;;;;;5103607;28;20024;-86
2022/12/23 03:13:13;;;;;;;6.60;1.52;;;16.10;91.40;;;;;;5092070;28;20046;-86
2022/12/23 03:16:02;;;;;;;8.27;1.15;;;16.10;91.40;;;;;;5108565;28;20027;-86
2022/12/23 03:18:27;;;;;;;7.72;1.52;;;16.10;91.40;;;;;;5108399;28;20473;-85
2022/12/23 03:21:02;;;;;;;2.35;1.25;;;16.10;91.40;;;;;;5100983;28;20031;-86
2022/12/23 03:23:38;;;;;;;3.67;1.35;;;16.10;91.40;;;;;;5091672;28;20035;-86
2022/12/23 03:26:15;;;;;;;4.22;1.55;;;16.10;91.50;;;;;;5091709;28;20024;-86
2022/12/23 03:28:53;;;;;;;5.60;2.13;;;16.10;91.50;;;;;;5105597;28;20024;-86
2022/12/23 03:31:24;;;;;;;8.55;1.90;;;16.10;91.40;;;;;;5095622;28;20074;-86
2022/12/23 03:33:55;;;;;;;5.50;1.40;;;16.10;91.50;;;;;;5106225;28;20041;-85
2022/12/23 03:36:25;;;;;;;9.15;2.08;;;16.10;91.50;;;;;;5093760;28;20031;-86
2022/12/23 03:38:54;;;;;;;7.50;1.65;;;16.10;91.40;;;;;;5091285;28;20058;-86
2022/12/23 03:41:26;;;;;;;3.35;1.50;;;16.10;91.50;;;;;;5099629;28;20020;-86
2022/12/23 03:44:07;;;;;;;3.90;1.20;;;16.10;91.50;;;;;;5102805;28;20389;-86
2022/12/23 03:46:57;;;;;;;4.03;1.77;;;16.10;91.40;;;;;;5097231;28;20023;-86
2022/12/23 03:49:31;;;;;;;4.43;1.75;;;16.10;91.50;;;;;;5080458;28;20024;-86
2022/12/23 03:52:09;;;;;;;6.05;1.50;;;16.10;91.50;;;;;;5092178;28;20110;-86
2022/12/23 03:54:44;;;;;;;10.88;1.80;;;16.10;91.50;;;;;;5091229;28;20068;-85
2022/12/23 03:57:11;;;;;;;5.18;1.88;;;16.10;91.50;;;;;;5094046;28;20020;-86
2022/12/23 03:59:44;;;;;;;5.30;1.50;;;16.10;91.50;;;;;;5091063;28;20024;-86
2022/12/23 04:02:10;;;;;;;5.82;1.45;;;16.10;91.60;;;;;;5076018;28;20508;-86
2022/12/23 04:04:57;;;;;;;7.75;1.70;;;16.10;91.50;;;;;;5093660;28;20028;-86
2022/12/23 04:07:29;;;;;;;5.57;1.73;;;16.10;91.60;;;;;;5086290;28;20504;-87
2022/12/23 04:09:56;;;;;;;5.03;1.27;;;16.10;91.50;;;;;;5098881;28;20025;-86
2022/12/23 04:12:25;;;;;;;8.10;1.30;;;16.10;91.60;;;;;;5084814;28;20077;-86
2022/12/23 04:14:50;;;;;;;5.15;1.45;;;16.10;91.60;;;;;;5099391;28;20019;-86
2022/12/23 04:17:17;;;;;;;6.15;1.45;;;16.00;91.60;;;;;;5071095;28;20032;-86
2022/12/23 04:19:44;;;;;;;6.50;1.30;;;16.10;91.60;;;;;;5087654;28;20016;-86
2022/12/23 04:22:14;;;;;;;7.35;1.20;;;16.10;91.50;;;;;;5089287;28;20024;-86
2022/12/23 04:24:39;;;;;;;4.82;1.50;;;16.10;91.60;;;;;;5080398;28;20032;-86
2022/12/23 04:27:06;;;;;;;9.43;1.50;;;16.10;91.60;;;;;;5089388;28;20374;-86
2022/12/23 04:29:31;;;;;;;12.60;1.20;;;16.00;91.50;;;;;;5091800;28;20551;-86
2022/12/23 04:31:57;;;;;;;2.83;1.30;;;16.10;91.60;;;;;;5090580;28;20028;-86
2022/12/23 04:34:23;;;;;;;9.30;1.40;;;16.10;91.60;;;;;;5093120;28;20435;-87
2022/12/23 04:36:48;;;;;;;5.85;1.50;;;16.10;91.50;;;;;;5101233;28;20053;-86
2022/12/23 04:39:14;;;;;;;8.77;1.50;;;16.10;91.50;;;;;;5107906;28;20020;-86
2022/12/23 04:41:39;;;;;;;3.75;1.73;;;16.00;91.50;;;;;;5101282;28;20058;-85
2022/12/23 04:44:05;;;;;;;5.70;1.23;;;16.10;91.50;;;;;;5083687;28;20473;-86
2022/12/23 04:46:31;;;;;;;2.13;1.10;;;16.00;91.50;;;;;;5115266;22;20521;-89
2022/12/23 04:48:56;;;;;;;4.10;1.42;;;16.10;91.60;;;;;;5071091;28;20478;-89
2022/12/23 04:51:22;;;;;;;5.22;1.10;;;16.10;91.60;;;;;;5070765;28;20024;-88
2022/12/23 04:53:48;;;;;;;2.75;1.25;;;16.00;91.60;;;;;;5071271;28;20022;-89
2022/12/23 04:56:13;;;;;;;3.17;1.17;;;16.00;91.60;;;;;;5083289;28;20057;-89
2022/12/23 04:58:39;;;;;;;2.88;0.95;;;16.00;91.60;;;;;;5084858;28;20039;-89
2022/12/23 05:01:10;;;;;;;2.25;1.10;;;16.00;91.60;;;;;;5085756;28;20026;-90
2022/12/23 05:03:37;;;;;;;1.48;1.23;;;16.00;91.50;;;;;;5087371;28;20059;-89
2022/12/23 05:06:03;;;;;;;6.00;1.05;;;16.00;91.50;;;;;;5091581;28;20039;-89
2022/12/23 05:08:29;;;;;;;2.92;1.13;;;16.10;91.60;;;;;;5071089;28;20032;-89
2022/12/23 05:10:55;;;;;;;4.15;1.35;;;16.00;91.60;;;;;;5075339;28;20020;-90
2022/12/23 05:13:21;;;;;;;3.10;1.00;;;16.10;92.00;;;;;;5112804;28;20035;-89
2022/12/23 05:15:51;;;;;;;12.70;1.13;;;16.10;92.10;;;;;;5113177;28;20030;-89
2022/12/23 05:18:18;;;;;;;;;;;16.10;91.70;;;;;;5097228;28;20036;-89
2022/12/23 05:20:43;;;;;;;4.68;1.13;;;16.10;91.70;;;;;;5073753;28;19905;-90
2022/12/23 05:23:09;;;;;;;4.38;1.52;;;16.00;91.60;;;;;;5076752;28;20115;-89
2022/12/23 05:25:36;;;;;;;8.90;1.00;;;16.00;91.70;;;;;;5095555;28;20051;-91
2022/12/23 05:28:03;;;;;;;8.10;1.20;;;16.10;91.70;;;;;;5088411;28;20547;-89
2022/12/23 05:30:28;;;;;;;4.18;1.33;;;16.00;91.60;;;;;;5082581;28;20049;-89
2022/12/23 05:32:55;;;;;;;1.70;1.00;;;16.00;91.60;;;;;;5094588;28;20066;-89
2022/12/23 05:35:24;;;;;;;2.08;1.30;;;16.00;92.00;;;;;;5094682;28;20024;-89
2022/12/23 05:37:50;;;;;;;3.25;1.30;;;16.10;91.70;;;;;;5094302;28;20026;-89
2022/12/23 05:40:16;;;;;;;2.72;1.10;;;16.00;91.60;;;;;;5073479;28;20029;-89
2022/12/23 05:42:42;;;;;;;2.13;1.05;;;16.10;91.60;;;;;;5073651;28;20035;-89
2022/12/23 05:45:08;;;;;;;1.67;1.00;;;16.00;91.60;;;;;;5077222;28;20031;-89
2022/12/23 05:47:33;;;;;;;7.65;1.15;;;16.00;91.60;;;;;;5094050;28;20432;-88
2022/12/23 05:49:59;;;;;;;1.20;1.10;;;16.10;91.60;;;;;;5093718;28;20026;-89
2022/12/23 05:52:24;;;;;;;2.47;1.20;;;16.00;91.50;;;;;;5095171;28;20493;-89
2022/12/23 05:54:50;;;;;;;4.25;1.02;;;16.10;91.60;;;;;;5093984;28;20017;-89
2022/12/23 05:57:15;;;;;;;3.22;0.98;;;16.10;91.60;;;;;;5085215;28;20059;-89
2022/12/23 05:59:41;;;;;;;7.70;1.90;;;16.10;91.70;;;;;;5094953;28;20051;-88
2022/12/23 06:02:07;;;;;;;4.22;0.93;;;16.10;91.60;;;;;;5093710;28;20031;-89
2022/12/23 06:04:32;;;;;;;2.85;1.10;;;16.10;91.90;;;;;;5093610;28;20393;-87
2022/12/23 06:06:58;;;;;;;2.15;0.90;;;16.10;91.60;;;;;;5075582;28;20024;-90
2022/12/23 06:09:23;;;;;;;1.65;1.05;;;16.10;91.60;;;;;;5073403;28;20123;-89
2022/12/23 06:11:49;;;;;;;2.08;1.08;;;16.10;91.60;;;;;;5081643;28;20139;-90
2022/12/23 06:14:14;;;;;;;9.55;1.13;;;16.10;91.50;;;;;;5074626;28;20439;-88
2022/12/23 06:16:40;;;;;;;6.13;1.27;;;16.10;91.50;;;;;;5073299;28;20490;-89
2022/12/23 06:19:05;;;;;;;2.25;1.20;;;16.10;91.50;;;;;;5089811;28;20024;-88
2022/12/23 06:21:31;;;;;;;5.75;0.98;;;16.10;91.60;;;;;;5084492;28;20046;-88
2022/12/23 06:23:57;;;;;;;1.58;1.00;;;16.10;91.80;;;;;;5075362;28;20017;-88
2022/12/23 06:26:22;;;;;;;8.32;1.33;;;16.10;91.70;;;;;;5072981;28;20111;-89
2022/12/23 06:28:48;;;;;;;3.42;1.35;;;16.20;91.70;;;;;;5072732;28;20020;-89
2022/12/23 06:31:14;;;;;;;2.75;1.00;;;16.20;91.70;;;;;;5072193;28;20492;-86
2022/12/23 06:33:39;;;;;;;5.43;1.20;;;16.10;91.60;;;;;;5081297;28;20089;-89
2022/12/23 06:36:06;;;;;;;8.38;1.65;;;16.10;91.60;;;;;;5100498;28;20023;-89
2022/12/23 06:38:31;;;;;;;5.93;1.15;;;16.10;91.60;;;;;;5114165;28;20031;-88
2022/12/23 06:40:57;;;;;;;8.05;2.00;;;16.10;91.60;;;;;;5106236;28;20024;-87
2022/12/23 06:43:23;;;;;;;5.18;1.63;;;16.20;91.60;;;;;;5095841;28;20028;-89
2022/12/23 06:45:49;;;;;;;8.38;1.20;;;16.20;91.70;;;;;;5084256;28;20028;-89
2022/12/23 06:48:15;;;;;;;3.97;1.40;;;16.20;91.70;;;;;;5072447;28;20028;-88
2022/12/23 06:50:41;;;;;;;6.97;1.40;;;16.20;91.60;;;;;;5084009;28;20024;-89
2022/12/23 06:53:06;;;;;;;8.02;1.50;;;16.20;91.70;;;;;;5082356;28;20031;-90
2022/12/23 06:55:32;;;;;;;3.00;1.13;;;16.20;91.60;;;;;;5081535;28;20460;-88
2022/12/23 06:57:58;;;;;;;12.73;1.60;;;16.20;91.60;;;;;;5087092;28;20389;-89
2022/12/23 07:00:23;;;;;;;6.65;1.50;;;16.20;91.60;;;;;;5083745;28;20107;-90
2022/12/23 07:02:49;;;;;;;4.15;0.82;;;16.20;91.60;;;;;;5092434;28;20052;-89
2022/12/23 07:05:15;;;;;;;6.47;1.45;;;16.20;91.60;;;;;;5083887;28;20020;-88
2022/12/23 07:07:41;;;;;;;3.30;1.23;;;16.20;91.50;;;;;;5092490;28;20666;-88
2022/12/23 07:10:08;;;;;;;5.72;1.10;;;16.20;91.50;;;;;;5092002;28;20195;-89
2022/12/23 07:12:33;;;;;;;3.60;1.27;;;16.20;91.50;;;;;;5092138;28;20401;-89
2022/12/23 07:14:59;;;;;;;2.92;1.15;;;16.30;91.50;;;;;;5092285;28;20031;-87
2022/12/23 07:17:24;;;;;;;1.13;0.82;;;16.30;91.50;;;;;;5079287;28;20020;-88
2022/12/23 07:19:50;;;;;;;3.65;1.25;;;16.30;91.50;;;;;;5088336;28;20031;-87
2022/12/23 07:22:15;;;;;;;3.47;0.82;;;16.30;91.50;;;;;;5093456;28;20031;-88
2022/12/23 07:24:41;;;;;;;4.55;1.10;;;16.30;91.40;;;;;;5080099;28;20118;-87
2022/12/23 07:27:06;;;;;;;4.00;0.85;;;16.30;91.50;;;;;;5091335;28;20016;-89
2022/12/23 07:29:32;;;;;;;4.80;1.08;;;16.30;91.50;;;;;;5091497;28;20131;-87
2022/12/23 07:31:57;;;;;;;9.13;1.20;;;16.30;91.50;;;;;;5104449;28;20020;-87
2022/12/23 07:34:23;;;;;;;5.38;1.27;;;16.30;91.50;;;;;;5093384;28;20028;-87
2022/12/23 07:36:48;;;;;;;4.55;1.25;;;16.30;91.50;;;;;;5092228;28;20024;-88
2022/12/23 07:39:14;;;;;;;5.53;0.98;;;16.30;91.50;;;;;;5084283;28;20078;-88
2022/12/23 07:41:40;;;;;;;3.47;1.02;;;16.30;91.50;;;;;;5071196;28;20078;-88
2022/12/23 07:44:06;;;;;;;3.45;1.00;;;16.30;91.50;;;;;;5072849;28;20108;-88
2022/12/23 07:46:31;;;;;;;4.85;1.00;;;16.30;91.40;;;;;;5081292;28;20040;-85
2022/12/23 07:48:57;;;;;;;8.60;0.93;;;16.30;91.40;;;;;;5086069;28;20026;-87
2022/12/23 07:51:22;;;;;;;4.43;1.45;;;16.40;91.40;;;;;;5071530;28;20016;-88
2022/12/23 07:53:49;;;;;;;2.33;1.08;;;16.40;91.50;;;;;;5081894;28;20018;-88
2022/12/23 07:56:16;;;;;;;8.35;1.23;;;16.40;91.40;;;;;;5097245;28;20020;-88
2022/12/23 07:58:41;;;;;;;9.95;1.13;;;16.40;91.40;;;;;;5098128;28;20123;-88
2022/12/23 08:01:07;;;;;;;9.85;1.73;;;16.40;91.40;;;;;;5093292;28;20102;-88
2022/12/23 08:03:33;;;;;;;7.40;0.95;;;16.40;91.40;;;;;;5079172;28;20032;-89
2022/12/23 08:06:06;;;;;;;10.07;1.60;;;16.40;91.50;;;;;;5071118;28;20021;-89
2022/12/23 08:08:32;;;;;;;4.35;1.17;;;16.40;91.40;;;;;;5071696;28;20032;-89
2022/12/23 08:11:00;;;;;;;1.77;0.93;;;16.50;91.40;;;;;;5074238;28;20078;-87
2022/12/23 08:13:26;;;;;;;5.18;1.55;;;16.50;91.40;;;;;;5092730;28;20020;-88
2022/12/23 08:15:56;;;;;;;5.28;1.23;;;16.50;91.40;;;;;;5075086;28;20488;-88
2022/12/23 08:18:22;;;;;;;;;;;16.50;91.40;;;;;;5078543;28;20024;-88
2022/12/23 08:20:58;;;;;;;5.38;1.00;;;16.50;91.40;;;;;;5087725;28;20253;-88
2022/12/23 08:23:26;;;;;;;6.45;1.40;;;16.50;91.40;;;;;;5079059;28;20025;-90
2022/12/23 08:26:00;;;;;;;6.45;1.35;;;16.50;91.40;;;;;;5078989;28;20066;-89
2022/12/23 08:28:26;;;;;;;2.67;1.23;;;16.50;91.40;;;;;;5075136;28;20516;-89
2022/12/23 08:30:51;;;;;;;6.72;1.30;;;16.50;91.40;;;;;;5083398;28;20039;-90
2022/12/23 08:33:17;;;;;;;7.40;1.20;;;16.50;91.40;;;;;;5080942;28;20028;-89
2022/12/23 08:35:42;;;;;;;2.38;1.17;;;16.60;91.40;;;;;;5076305;28;20358;-89
2022/12/23 08:38:08;;;;;;;3.17;1.25;;;16.60;91.30;;;;;;5090212;28;20121;-89
2022/12/23 08:40:33;;;;;;;3.60;1.30;;;16.60;91.30;;;;;;5092290;28;20456;-88
2022/12/23 08:42:59;;;;;;;2.75;1.05;;;16.60;91.30;;;;;;5077417;28;20481;-89
2022/12/23 08:45:24;;;;;;;7.03;1.30;;;16.60;91.30;;;;;;5078925;28;20082;-88
2022/12/23 08:47:50;;;;;;;3.42;1.10;;;16.50;91.30;;;;;;5070653;28;20078;-87
2022/12/23 08:50:16;;;;;;;1.63;1.05;;;16.60;91.30;;;;;;5072119;28;20035;-89
2022/12/23 08:52:41;;;;;;;5.25;1.27;;;16.60;91.30;;;;;;5070965;28;20100;-87
2022/12/23 08:55:07;;;;;;;3.47;1.23;;;16.60;91.30;;;;;;5073146;28;20024;-88
2022/12/23 08:57:33;;;;;;;4.57;1.25;;;16.60;91.20;;;;;;5082341;28;20376;-89
2022/12/23 08:59:59;;;;;;;6.72;1.27;;;16.60;91.20;;;;;;5115380;28;20043;-90
2022/12/23 09:02:24;;;;;;;6.18;1.40;;;16.60;91.20;;;;;;5099549;28;20064;-89
2022/12/23 09:04:50;;;;;;;7.32;1.20;;;16.60;91.20;;;;;;5097634;28;20031;-89
2022/12/23 09:07:15;;;;;;;5.00;1.13;;;16.60;91.20;;;;;;5095600;28;20472;-91
2022/12/23 09:09:41;;;;;;;1.48;0.93;;;16.60;91.20;;;;;;5094056;28;20362;-91
2022/12/23 09:12:07;;;;;;;3.72;1.33;;;16.60;91.20;;;;;;5098238;28;20420;-90
2022/12/23 09:14:32;;;;;;;2.38;1.38;;;16.60;91.20;;;;;;5094481;28;20028;-89
2022/12/23 09:16:58;;;;;;;2.58;1.08;;;16.60;91.20;;;;;;5088012;28;20016;-89
2022/12/23 09:19:23;;;;;;;3.22;1.02;;;16.60;91.10;;;;;;5077686;28;20469;-90
2022/12/23 09:21:49;;;;;;;1.98;0.85;;;16.60;91.10;;;;;;5087014;28;20089;-89
2022/12/23 09:24:14;;;;;;;2.35;1.23;;;16.60;91.40;;;;;;5093566;28;20515;-90
2022/12/23 09:26:40;;;;;;;4.05;0.98;;;16.60;91.10;;;;;;5089591;28;20013;-89
2022/12/23 09:29:05;;;;;;;7.05;1.55;;;16.60;91.10;;;;;;5092897;28;20638;-89
2022/12/23 09:31:31;;;;;;;3.08;1.38;;;16.60;91.10;;;;;;5092888;28;20488;-90
2022/12/23 09:33:57;;;;;;;2.83;1.52;;;16.60;91.10;;;;;;5093303;28;20012;-90
2022/12/23 09:36:23;;;;;;;1.10;0.85;;;16.60;91.10;;;;;;5089815;28;20338;-90
2022/12/23 09:38:56;;;;;;;1.15;0.98;;;16.60;91.10;;;;;;5080984;28;20025;-89
2022/12/23 09:41:28;;;;;;;2.80;1.23;;;16.60;91.00;;;;;;5092557;28;20031;-88
2022/12/23 09:44:05;;;;;;;3.13;1.08;;;16.60;91.00;;;;;;5092661;28;20468;-89
2022/12/23 09:46:32;;;;;;;3.63;1.55;;;16.60;91.00;;;;;;5085415;28;20028;-90
2022/12/23 09:49:08;;;;;;;8.27;1.60;;;16.70;91.00;;;;;;5088915;28;20070;-90
2022/12/23 09:51:34;;;;;;;3.30;1.10;;;16.60;91.00;;;;;;5092268;28;20053;-90
2022/12/23 09:54:21;;;;;;;2.55;1.25;;;16.60;91.00;;;;;;5085008;28;20913;-90
2022/12/23 09:57:27;;;;;;;6.18;0.90;;;16.60;91.00;;;;;;5083464;28;20070;-90
2022/12/23 10:00:01;;;;;;;4.38;1.20;;;16.70;91.00;;;;;;5089534;28;20459;-90
2022/12/23 10:02:48;;;;;;;4.88;1.02;;;16.60;90.90;;;;;;5078081;28;20025;-88
2022/12/23 10:05:38;;;;;;;3.65;0.95;;;16.70;91.00;;;;;;5084718;28;20478;-88
2022/12/23 10:08:31;;;;;;;3.50;1.83;;;16.70;91.00;;;;;;5091796;28;20024;-90
2022/12/23 10:11:06;;;;;;;2.83;1.02;;;16.70;91.30;;;;;;5085136;28;20485;-91
2022/12/23 10:13:37;;;;;;;7.70;1.17;;;16.70;90.90;;;;;;5090980;28;20507;-89
2022/12/23 10:16:17;;;;;;;8.30;1.50;;;16.70;90.90;;;;;;5094116;28;20415;-87
2022/12/23 10:18:56;;;;;;;2.88;1.45;;;16.70;91.00;;;;;;5088103;28;20079;-88
2022/12/23 10:21:45;;;;;;;6.53;2.00;;;16.70;91.00;;;;;;5085396;28;20143;-88
2022/12/23 10:24:17;;;;;;;8.07;2.10;;;16.70;91.00;;;;;;5098367;28;20043;-89
2022/12/23 10:26:51;;;;;;;4.00;1.70;;;16.70;91.00;;;;;;5082011;28;20015;-86
2022/12/23 10:29:23;;;;;;;9.52;3.00;;;16.70;90.90;;;;;;5083650;28;20019;-88
2022/12/23 10:32:15;;;;;;;12.57;2.22;;;16.80;91.00;;;;;;5089138;28;20016;-89
2022/12/23 10:34:53;;;;;;;10.40;1.83;;;16.90;90.90;;;;;;5085211;28;20015;-90
2022/12/23 10:37:47;;;;;;;10.90;2.95;;;16.90;90.90;;;;;;5091423;28;20029;-88
2022/12/23 10:40:34;;;;;;;7.15;2.42;;;16.90;90.90;;;;;;5080094;28;20017;-92
2022/12/23 10:43:34;;;;;;;18.25;3.22;;;16.90;91.00;;;;;;5085560;28;20033;-87
2022/12/23 10:46:09;;;;;;;9.85;3.22;;;16.80;91.00;;;;;;5090274;28;20024;-87
2022/12/23 10:48:40;;;;;;;8.95;3.00;;;16.80;91.00;;;;;;5085788;28;20087;-85
2022/12/23 10:51:16;;;;;;;13.15;3.90;;;16.80;91.00;;;;;;5085884;28;20029;-86
2022/12/23 10:54:03;;;;;;;9.23;3.05;;;16.80;91.00;;;;;;5084361;28;20080;-86
2022/12/23 10:56:29;;;;;;;12.55;3.60;;;16.80;91.00;;;;;;5082925;28;20016;-87
2022/12/23 10:58:58;;;;;;;11.15;3.45;;;16.80;91.00;;;;;;5085529;28;20028;-88
2022/12/23 11:01:25;;;;;;;17.27;3.90;;;16.90;91.10;;;;;;5088690;28;20024;-86
2022/12/23 11:04:11;;;;;;;11.60;3.22;;;16.90;91.00;;;;;;5079280;28;20016;-87
2022/12/23 11:06:42;;;;;;;12.70;3.65;;;16.90;91.00;;;;;;5084609;28;21918;-88
2022/12/23 11:09:15;;;;;;;9.05;3.17;;;16.90;91.00;;;;;;5085356;28;20496;-87
2022/12/23 11:12:02;;;;;;;13.65;3.88;;;16.90;91.00;;;;;;5083890;28;20598;-89
2022/12/23 11:14:50;;;;;;;10.13;3.03;;;16.90;91.00;;;;;;5104183;28;20032;-89
2022/12/23 11:17:29;;;;;;;22.42;4.20;;;16.90;91.00;;;;;;5085737;28;20028;-91
2022/12/23 11:20:16;;;;;;;11.32;3.28;;;16.90;91.00;;;;;;5081184;28;20013;-92
2022/12/23 11:22:48;;;;;;;12.75;3.30;;;16.90;91.00;;;;;;5088532;28;20038;-91
2022/12/23 11:25:34;;;;;;;10.80;4.38;;;16.90;91.00;;;;;;5087269;28;20032;-92
2022/12/23 11:28:21;;;;;;;16.85;3.33;;;16.90;91.00;;;;;;5098241;28;20115;-91
2022/12/23 11:30:49;;;;;;;10.07;3.40;;;16.90;91.00;;;;;;5095358;28;20020;-91
2022/12/23 11:33:46;;;;;;;14.65;4.25;;;16.90;90.90;;;;;;5089405;28;20117;-90
2022/12/23 11:36:12;;;;;;;12.15;4.88;;;16.90;91.00;;;;;;5079426;28;20052;-91
2022/12/23 11:38:49;;;;;;;12.55;3.88;;;16.90;91.00;;;;;;5084641;28;20051;-91
2022/12/23 11:41:26;;;;;;;9.25;3.50;;;16.90;91.00;;;;;;5090492;28;20031;-90
2022/12/23 11:44:09;;;;;;;13.93;4.13;;;16.90;90.90;;;;;;5099903;28;20107;-90
2022/12/23 11:46:34;;;;;;;13.98;3.65;;;16.90;91.00;;;;;;5081110;28;20185;-90
2022/12/23 11:49:19;;;;;;;11.45;3.67;;;16.90;91.00;;;;;;5091993;28;20641;-91
2022/12/23 11:51:59;;;;;;;10.00;3.38;;;16.90;91.00;;;;;;5092982;28;20024;-91
2022/12/23 11:54:25;;;;;;;11.50;3.58;;;16.90;90.90;;;;;;5096030;28;20024;-90
2022/12/23 11:56:52;;;;;;;10.75;3.83;;;16.90;90.90;;;;;;5091831;28;20125;-90
2022/12/23 11:59:42;;;;;;;15.73;3.45;;;16.90;90.90;;;;;;5089386;28;20027;-90
2022/12/23 12:02:35;;;;;;;10.45;4.13;;;16.90;90.90;;;;;;5092559;28;20118;-91
2022/12/23 12:05:21;;;;;;;9.35;3.80;;;16.90;90.90;;;;;;5118959;23;20044;-87
2022/12/23 12:07:48;;;;;;;9.57;3.25;;;16.90;90.90;;;;;;5031865;28;20033;-85
2022/12/23 12:10:24;;;;;;;11.48;4.85;;;16.90;90.90;;;;;;5057110;28;20065;-86
2022/12/23 12:12:54;;;;;;;6.22;3.08;;;16.90;90.90;;;;;;5024267;28;20026;-85
2022/12/23 12:15:23;;;;;;;;;;;16.90;90.90;;;;;;5038366;28;20024;-86
2022/12/23 12:17:51;;;;;;;8.57;3.03;;;16.90;90.90;;;;;;5030652;28;20262;-86
2022/12/23 12:20:44;;;;;;;9.65;3.70;;;16.90;90.80;;;;;;5032060;28;20787;-85
2022/12/23 12:23:39;;;;;;;10.60;3.08;;;16.90;90.90;;;;;;5036260;28;20036;-88
2022/12/23 12:26:12;;;;;;;7.90;3.38;;;16.90;90.90;;;;;;5027660;28;20056;-86
2022/12/23 12:28:40;;;;;;;11.95;3.50;;;16.90;90.90;;;;;;5040667;28;20033;-86
2022/12/23 12:31:28;;;;;;;7.35;3.20;;;16.90;90.90;;;;;;5037098;28;20029;-86
2022/12/23 12:33:56;;;;;;;8.02;2.60;;;16.90;90.80;;;;;;5037781;28;20033;-86
2022/12/23 12:36:39;;;;;;;9.93;3.60;;;16.90;90.80;;;;;;5070781;28;20028;-86
2022/12/23 12:39:22;;;;;;;8.15;3.55;;;16.90;90.80;;;;;;5048556;28;20029;-87
2022/12/23 12:41:55;;;;;;;8.00;3.35;;;16.90;90.80;;;;;;5064500;28;20025;-86
2022/12/23 12:44:34;;;;;;;11.57;3.47;;;16.90;90.80;;;;;;5037988;28;20037;-87
2022/12/23 12:47:11;;;;;;;5.72;2.78;;;16.90;90.90;;;;;;5065889;28;20075;-87
2022/12/23 12:49:50;;;;;;;8.32;2.72;;;16.90;90.90;;;;;;5038823;28;20021;-87
2022/12/23 12:52:19;;;;;;;9.77;3.15;;;16.90;90.80;;;;;;5066902;28;20028;-87
2022/12/23 12:55:01;;;;;;;7.00;3.45;;;16.90;90.80;;;;;;5034036;28;20490;-86
2022/12/23 12:57:28;;;;;;;7.68;3.20;;;16.90;90.80;;;;;;5030423;28;20028;-87
2022/12/23 12:59:56;;;;;;;7.63;3.30;;;16.90;90.80;;;;;;5037134;28;20066;-87
2022/12/23 13:02:44;;;;;;;5.70;2.65;;;16.90;90.80;;;;;;5055200;28;20029;-87
2022/12/23 13:05:41;;;;;;;7.68;2.97;;;16.90;90.70;;;;;;5032965;28;20033;-87
2022/12/23 13:08:22;;;;;;;8.02;2.80;;;16.90;90.70;;;;;;5058313;28;20029;-86
2022/12/23 13:10:52;;;;;;;7.95;2.72;;;16.90;90.70;;;;;;5052537;28;20099;-87
2022/12/23 13:13:47;;;;;;;7.95;2.75;;;16.90;90.70;;;;;;5077705;28;20040;-86
2022/12/23 13:16:27;;;;;;;6.28;2.72;;;16.90;90.70;;;;;;5044771;28;20233;-86
2022/12/23 13:19:24;;;;;;;6.50;2.80;;;16.90;90.60;;;;;;5035883;28;20045;-87
2022/12/23 13:22:02;;;;;;;7.00;2.78;;;16.90;90.60;;;;;;5036435;28;20025;-87
2022/12/23 13:25:06;;;;;;;9.35;2.80;;;16.90;90.60;;;;;;5059604;28;20029;-86
2022/12/23 13:27:34;;;;;;;8.00;3.03;;;16.90;90.60;;;;;;5039008;28;20429;-87
2022/12/23 13:30:02;;;;;;;5.70;2.50;;;16.90;90.60;;;;;;5034534;28;20027;-87
2022/12/23 13:33:06;;;;;;;4.32;2.42;;;16.90;90.60;;;;;;5035144;28;20095;-87